| time (UTC) | temp C | wind direction | speed KPH | gust KPH | rain 1hr cm | rain 24hr cm | rain mn cm | humidity % | barometer mb |
| 20260906194532 | 29 | 188 | 8.0 | 19.3 | 0.00 | 0.53 | 0.53 | 61 | 1016.0 |
| 20260906193029 | 30 | 173 | 12.9 | 20.9 | 0.00 | 0.53 | 0.53 | 56 | 1016.0 |
| 20260906191530 | 30 | 197 | 8.0 | 17.7 | 0.00 | 0.53 | 0.53 | 58 | 1016.0 |
| 20260906190026 | 30 | 178 | 9.7 | 17.7 | 0.00 | 0.53 | 0.53 | 62 | 1016.0 |
| 20260906184520 | 31 | 151 | 8.0 | 14.5 | 0.00 | 0.53 | 0.53 | 61 | 1016.1 |
| 20260906183036 | 29 | 166 | 9.7 | 19.3 | 0.00 | 0.53 | 0.53 | 60 | 1016.2 |
| 20260906181531 | 29 | 185 | 9.7 | 19.3 | 0.00 | 0.53 | 0.53 | 62 | 1016.2 |
| 20260906180053 | 28 | 184 | 9.7 | 19.3 | 0.00 | 0.53 | 0.53 | 61 | 1016.2 |
| 20260906174529 | 28 | 185 | 8.0 | 16.1 | 0.00 | 0.53 | 0.53 | 61 | 1016.2 |
| 20260906173028 | 28 | 177 | 6.4 | 17.7 | 0.00 | 0.53 | 0.53 | 59 | 1016.3 |
| 20260906171525 | 28 | 140 | 8.0 | 16.1 | 0.00 | 0.53 | 0.53 | 58 | 1016.2 |
| 20260906170018 | 27 | 192 | 4.8 | 19.3 | 0.00 | 0.53 | 0.53 | 57 | 1016.2 |
| 20260906164518 | 27 | 262 | 4.8 | 11.3 | 0.00 | 0.53 | 0.53 | 58 | 1016.2 |
| 20260906163014 | 26 | 225 | 9.7 | 14.5 | 0.00 | 0.53 | 0.53 | 56 | 1016.0 |
| 20260906161531 | 25 | 209 | 8.0 | 11.3 | 0.00 | 0.53 | 0.53 | 59 | 1015.6 |
| 20260906160033 | 24 | 167 | 3.2 | 12.9 | 0.00 | 0.53 | 0.53 | 65 | 1015.2 |
| 20260906154528 | 23 | 192 | 9.7 | 20.9 | 0.00 | 0.53 | 0.53 | 64 | 1015.2 |
| 20260906153024 | 23 | 177 | 14.5 | 30.6 | 0.03 | 0.53 | 0.53 | 65 | 1014.9 |
| 20260906151523 | 22 | 178 | 16.1 | 27.4 | 0.03 | 0.53 | 0.53 | 70 | 1015.0 |
| 20260906150024 | 21 | 232 | 12.9 | 25.7 | 0.10 | 0.53 | 0.53 | 73 | 1016.0 |
| 20260906144516 | 21 | 174 | 17.7 | 40.2 | 0.25 | 0.53 | 0.53 | 75 | 1015.6 |
| 20260906143035 | 20 | 186 | 25.7 | 35.4 | 0.30 | 0.51 | 0.51 | 84 | 1016.1 |
| 20260906141510 | 20 | 226 | 14.5 | 20.9 | 0.36 | 0.51 | 0.51 | 86 | 1018.3 |
| 20260906140032 | 20 | 238 | 14.5 | 20.9 | 0.30 | 0.43 | 0.43 | 89 | 1019.1 |
| 20260906134531 | 20 | 251 | 11.3 | 22.5 | 0.18 | 0.28 | 0.28 | 90 | 1019.5 |
| 20260906133031 | 20 | 265 | 4.8 | 6.4 | 0.13 | 0.20 | 0.20 | 90 | 1019.0 |
| 20260906131531 | 20 | 282 | 6.4 | 17.7 | 0.10 | 0.15 | 0.15 | 89 | 1018.1 |
| 20260906130019 | 20 | 306 | 9.7 | 16.1 | 0.13 | 0.13 | 0.13 | 89 | 1018.1 |
| 20260906124512 | 20 | 319 | 6.4 | 17.7 | 0.10 | 0.10 | 0.10 | 90 | 1018.5 |
| 20260906123010 | 20 | 277 | 9.7 | 19.3 | 0.08 | 0.08 | 0.08 | 89 | 1018.5 |
| 20260906121532 | 20 | 308 | 11.3 | 19.3 | 0.05 | 0.05 | 0.05 | 89 | 1018.5 |
| 20260906120029 | 20 | 290 | 16.1 | 24.1 | 0.00 | 0.00 | 0.00 | 87 | 1018.4 |
| 20260906114527 | 21 | 329 | 14.5 | 20.9 | 0.00 | 0.00 | 0.00 | 84 | 1018.4 |
| 20260906113025 | 21 | 320 | 11.3 | 22.5 | 0.00 | 0.00 | 0.00 | 81 | 1018.6 |
| 20260906111519 | 22 | 306 | 11.3 | 22.5 | 0.00 | 0.00 | 0.00 | 79 | 1018.3 |
| 20260906110014 | 22 | 310 | 6.4 | 16.1 | 0.00 | 0.00 | 0.00 | 79 | 1017.4 |
| 20260906104535 | 23 | 305 | 6.4 | 19.3 | 0.00 | 0.00 | 0.00 | 78 | 1016.8 |
| 20260906103031 | 23 | 342 | 9.7 | 22.5 | 0.00 | 0.00 | 0.00 | 79 | 1016.6 |
| 20260906101532 | 22 | 329 | 8.0 | 16.1 | 0.00 | 0.00 | 0.00 | 83 | 1016.5 |
| 20260906100029 | 21 | 269 | 6.4 | 25.7 | 0.00 | 0.00 | 0.00 | 89 | 1016.3 |
| 20260906094535 | 21 | 123 | 0.0 | 3.2 | 0.00 | 0.00 | 0.00 | 89 | 1015.3 |
| 20260906093032 | 21 | 123 | 1.6 | 3.2 | 0.00 | 0.00 | 0.00 | 90 | 1015.2 |
| 20260906091519 | 21 | 123 | 0.0 | 3.2 | 0.00 | 0.00 | 0.00 | 90 | 1015.2 |
| 20260906090035 | 21 | 123 | 0.0 | 3.2 | 0.00 | 0.00 | 0.00 | 90 | 1015.0 |
| 20260906084544 | 21 | 123 | 0.0 | 1.6 | 0.00 | 0.00 | 0.00 | 90 | 1015.0 |
| 20260906083036 | 21 | 123 | 0.0 | 1.6 | 0.00 | 0.00 | 0.00 | 89 | 1014.9 |
| 20260906081530 | 21 | 123 | 0.0 | 1.6 | 0.00 | 0.00 | 0.00 | 89 | 1015.0 |
| 20260906080031 | 21 | 123 | 0.0 | 3.2 | 0.00 | 0.00 | 0.00 | 90 | 1015.1 |
| 20260906074524 | 21 | 123 | 0.0 | 3.2 | 0.00 | 0.00 | 0.00 | 89 | 1015.1 |
| 20260906073039 | 21 | 123 | 0.0 | 3.2 | 0.00 | 0.00 | 0.00 | 89 | 1015.2 |
| 20260906071545 | 21 | 123 | 0.0 | 3.2 | 0.00 | 0.00 | 0.00 | 88 | 1015.2 |
| 20260906070031 | 21 | 122 | 1.6 | 1.6 | 0.00 | 0.00 | 0.00 | 88 | 1015.0 |
| 20260906064532 | 21 | 122 | 0.0 | 3.2 | 0.00 | 0.00 | 0.00 | 88 | 1015.0 |
| 20260906063030 | 21 | 96 | 1.6 | 1.6 | 0.00 | 0.00 | 0.00 | 88 | 1015.0 |
| 20260906061505 | 21 | 96 | 0.0 | 1.6 | 0.00 | 0.00 | 0.00 | 89 | 1015.0 |
| 20260906060008 | 21 | 93 | 0.0 | 1.6 | 0.00 | 0.00 | 0.00 | 90 | 1015.0 |
| 20260906054507 | 21 | 93 | 0.0 | 1.6 | 0.00 | 0.00 | 0.00 | 90 | 1015.1 |
| 20260906053008 | 22 | 93 | 1.6 | 1.6 | 0.00 | 0.00 | 0.00 | 90 | 1015.3 |
| 20260906051508 | 22 | 93 | 0.0 | 1.6 | 0.00 | 0.00 | 0.00 | 90 | 1015.3 |
| 20260906050009 | 22 | 93 | 0.0 | 3.2 | 0.00 | 0.00 | 0.00 | 89 | 1015.4 |
| 20260906044508 | 23 | 93 | 0.0 | 1.6 | 0.00 | 0.00 | 0.00 | 87 | 1015.2 |
| 20260906043010 | 23 | 93 | 0.0 | 3.2 | 0.00 | 0.00 | 0.00 | 88 | 1015.3 |
| 20260906041512 | 23 | 84 | 1.6 | 1.6 | 0.00 | 0.00 | 0.00 | 88 | 1015.2 |
| 20260906040014 | 23 | 84 | 1.6 | 3.2 | 0.00 | 0.00 | 0.00 | 88 | 1015.1 |
| 20260906034526 | 23 | 84 | 0.0 | 1.6 | 0.00 | 0.00 | 0.00 | 88 | 1015.0 |
| 20260906033022 | 23 | 84 | 1.6 | 3.2 | 0.00 | 0.00 | 0.00 | 88 | 1015.0 |
| 20260906031511 | 23 | 118 | 0.0 | 3.2 | 0.00 | 0.00 | 0.00 | 87 | 1014.7 |
| 20260906030009 | 23 | 118 | 1.6 | 3.2 | 0.00 | 0.00 | 0.00 | 88 | 1014.6 |
| 20260906024511 | 23 | 117 | 0.0 | 3.2 | 0.00 | 0.00 | 0.00 | 88 | 1014.6 |
| 20260906023015 | 24 | 117 | 0.0 | 1.6 | 0.00 | 0.00 | 0.00 | 87 | 1014.4 |
| 20260906021514 | 24 | 117 | 0.0 | 3.2 | 0.00 | 0.00 | 0.00 | 86 | 1014.3 |
| 20260906020015 | 24 | 138 | 1.6 | 3.2 | 0.00 | 0.00 | 0.00 | 86 | 1014.0 |
| 20260906014525 | 25 | 68 | 0.0 | 3.2 | 0.00 | 0.00 | 0.00 | 84 | 1014.0 |
| 20260906013016 | 26 | 68 | 1.6 | 3.2 | 0.00 | 0.00 | 0.00 | 81 | 1013.7 |
| 20260906011531 | 26 | 95 | 0.0 | 3.2 | 0.00 | 0.00 | 0.00 | 82 | 1013.6 |
| 20260906010013 | 26 | 95 | 0.0 | 3.2 | 0.00 | 0.00 | 0.00 | 80 | 1013.3 |
| 20260906004529 | 27 | 93 | 1.6 | 3.2 | 0.00 | 0.00 | 0.00 | 78 | 1013.3 |
| 20260906003014 | 28 | 93 | 1.6 | 3.2 | 0.00 | 0.00 | 0.00 | 75 | 1013.3 |
| 20260906001517 | 29 | 115 | 1.6 | 4.8 | 0.00 | 0.00 | 0.00 | 71 | 1013.2 |
| 20260906000012 | 30 | 113 | 3.2 | 9.7 | 0.00 | 0.00 | 0.00 | 69 | 1013.0 |
| 20260905234511 | 30 | 109 | 4.8 | 11.3 | 0.00 | 0.00 | 0.00 | 67 | 1013.0 |
| 20260905233017 | 31 | 119 | 8.0 | 14.5 | 0.00 | 0.00 | 0.00 | 65 | 1013.0 |
| 20260905231518 | 31 | 119 | 6.4 | 12.9 | 0.00 | 0.00 | 0.00 | 65 | 1013.1 |
| 20260905230018 | 31 | 92 | 8.0 | 14.5 | 0.00 | 0.00 | 0.00 | 64 | 1013.0 |
| 20260905224525 | 31 | 107 | 8.0 | 14.5 | 0.00 | 0.00 | 0.00 | 66 | 1013.0 |
| 20260905223018 | 31 | 140 | 9.7 | 17.7 | 0.00 | 0.00 | 0.00 | 64 | 1013.3 |
| 20260905221519 | 31 | 105 | 8.0 | 17.7 | 0.00 | 0.00 | 0.00 | 66 | 1013.4 |
| 20260905220021 | 31 | 126 | 11.3 | 19.3 | 0.00 | 0.00 | 0.00 | 64 | 1013.5 |
| 20260905214517 | 31 | 138 | 12.9 | 22.5 | 0.00 | 0.00 | 0.00 | 63 | 1013.8 |
| 20260905213037 | 31 | 120 | 11.3 | 20.9 | 0.00 | 0.00 | 0.00 | 66 | 1014.0 |
| 20260905211519 | 31 | 72 | 11.3 | 22.5 | 0.00 | 0.00 | 0.00 | 66 | 1014.3 |
| 20260905210022 | 31 | 77 | 11.3 | 22.5 | 0.00 | 0.00 | 0.00 | 67 | 1014.5 |
| 20260905204520 | 31 | 82 | 14.5 | 22.5 | 0.00 | 0.00 | 0.00 | 70 | 1014.9 |
| 20260905203023 | 31 | 91 | 8.0 | 22.5 | 0.00 | 0.00 | 0.00 | 70 | 1015.1 |
| 20260905201521 | 30 | 101 | 16.1 | 22.5 | 0.00 | 0.00 | 0.00 | 68 | 1015.2 |
| 20260905200024 | 30 | 105 | 11.3 | 19.3 | 0.00 | 0.00 | 0.00 | 71 | 1015.4 |